createdAt,value
2022-12-14T06:23:49.448Z,71.33
2022-12-14T06:53:36.302Z,73.04
2022-12-14T07:02:53.419Z,72.47
2022-12-14T07:05:20.627Z,73.14
2022-12-14T07:07:47.075Z,73.42
2022-12-14T07:10:15.584Z,72.37
2022-12-14T07:12:42.105Z,72.67
2022-12-14T07:15:08.740Z,72.67
2022-12-14T07:17:35.734Z,72.48
2022-12-14T07:20:02.323Z,72.14
2022-12-14T07:22:28.804Z,72.74
2022-12-14T07:24:55.346Z,72.05
2022-12-14T07:27:21.850Z,71.70
2022-12-14T07:29:48.313Z,71.98
2022-12-14T07:32:14.813Z,71.84
2022-12-14T07:34:41.291Z,72.04
2022-12-14T07:37:07.761Z,72.41
2022-12-14T07:39:34.195Z,72.48
2022-12-14T07:42:00.660Z,72.73
2022-12-14T07:44:27.089Z,72.70
2022-12-14T07:46:53.675Z,72.57
2022-12-14T07:49:20.264Z,72.54
2022-12-14T07:51:46.971Z,72.11
2022-12-14T07:54:13.434Z,72.07
2022-12-14T07:56:40.508Z,72.02
2022-12-14T07:59:08.449Z,72.70
2022-12-14T08:01:35.404Z,72.21
2022-12-14T08:04:11.785Z,72.41
2022-12-14T08:06:38.257Z,72.19
2022-12-14T08:09:04.905Z,71.98
2022-12-14T08:11:31.440Z,72.35
2022-12-14T08:13:58.573Z,72.30
2022-12-14T08:16:25.341Z,72.35
2022-12-14T08:18:55.457Z,72.72
2022-12-14T08:21:22.271Z,72.71
2022-12-14T08:23:49.235Z,72.98
2022-12-14T08:26:15.793Z,73.31
2022-12-14T08:28:42.260Z,73.64
2022-12-14T08:31:09.606Z,73.23
2022-12-14T08:33:36.464Z,73.46
2022-12-14T08:36:19.672Z,73.07
2022-12-14T08:38:46.239Z,73.70
2022-12-14T08:41:15.480Z,73.78
2022-12-14T08:43:41.978Z,73.49
2022-12-14T08:46:08.853Z,73.78
2022-12-14T08:48:35.723Z,73.73
2022-12-14T08:51:02.843Z,72.99
2022-12-14T08:53:29.614Z,73.44
2022-12-14T08:55:56.403Z,73.47
2022-12-14T08:58:23.052Z,73.18
2022-12-14T09:00:49.612Z,73.72
2022-12-14T09:03:17.005Z,73.22
2022-12-14T09:05:43.491Z,73.80
2022-12-14T09:08:09.969Z,73.66
2022-12-14T09:10:36.375Z,73.39
2022-12-14T09:13:02.836Z,73.45
2022-12-14T09:15:29.322Z,73.44
2022-12-14T09:17:55.746Z,73.64
2022-12-14T09:20:22.193Z,73.94
2022-12-14T09:22:51.020Z,74.16
2022-12-14T09:25:17.467Z,73.44
2022-12-14T09:27:43.956Z,73.77
2022-12-14T09:30:10.636Z,73.64
2022-12-14T09:32:37.035Z,73.56
2022-12-14T09:35:05.666Z,73.07
2022-12-14T09:37:32.136Z,73.22
2022-12-14T09:39:58.546Z,74.09
2022-12-14T09:42:44.754Z,73.69
2022-12-14T09:45:19.187Z,74.02
2022-12-14T09:47:49.195Z,73.54
2022-12-14T09:50:19.239Z,73.85
2022-12-14T09:52:46.767Z,73.35
2022-12-14T09:55:20.986Z,73.42
2022-12-14T09:57:47.449Z,73.22
2022-12-14T10:00:20.519Z,73.35
2022-12-14T10:02:50.624Z,74.09
2022-12-14T10:05:32.783Z,74.28
2022-12-14T10:08:02.855Z,73.89
2022-12-14T10:10:32.953Z,73.67
2022-12-14T10:13:06.139Z,73.97
2022-12-14T10:15:33.176Z,73.77
2022-12-14T10:18:03.447Z,73.95
2022-12-14T10:20:32.691Z,74.35
2022-12-14T10:22:59.097Z,75.07
2022-12-14T10:25:26.424Z,74.38
2022-12-14T10:28:11.727Z,75.27
2022-12-14T10:30:38.418Z,74.88
2022-12-14T10:33:14.150Z,74.81
2022-12-14T10:35:53.350Z,74.88
2022-12-14T10:38:37.417Z,74.83
2022-12-14T10:41:06.749Z,74.93
2022-12-14T10:43:33.142Z,74.99
2022-12-14T10:46:11.824Z,75.48
2022-12-14T10:48:48.096Z,75.58
2022-12-14T10:51:33.438Z,75.85
2022-12-14T10:53:59.849Z,75.78
2022-12-14T10:56:27.946Z,75.50
2022-12-14T10:59:14.286Z,75.29
2022-12-14T11:01:40.925Z,75.04
2022-12-14T11:04:09.591Z,74.85
2022-12-14T11:06:36.028Z,74.62
2022-12-14T11:09:02.442Z,74.69
2022-12-14T11:11:29.019Z,75.07
2022-12-14T11:14:15.925Z,75.13
2022-12-14T11:16:42.501Z,75.07
2022-12-14T11:19:16.277Z,74.95
2022-12-14T11:21:42.831Z,74.85
2022-12-14T11:24:09.943Z,74.65
2022-12-14T11:26:40.633Z,75.51
2022-12-14T11:29:07.476Z,75.85
2022-12-14T11:31:37.798Z,75.54
2022-12-14T11:34:05.153Z,75.69
2022-12-14T11:36:38.675Z,75.42
2022-12-14T11:39:14.274Z,75.32
2022-12-14T11:41:41.218Z,75.33
2022-12-14T11:44:17.019Z,74.91
2022-12-14T11:46:46.468Z,74.84
2022-12-14T11:49:39.272Z,74.68
2022-12-14T11:52:05.679Z,74.52
2022-12-14T11:54:32.442Z,74.31
2022-12-14T11:57:03.449Z,74.18
2022-12-14T11:59:53.969Z,74.07
2022-12-14T12:02:22.410Z,74.08
2022-12-14T12:04:51.629Z,74.06
2022-12-14T12:07:23.789Z,73.76
2022-12-14T12:09:50.168Z,74.01
2022-12-14T12:12:17.496Z,73.81
2022-12-14T12:14:44.141Z,73.73
2022-12-14T12:17:31.042Z,73.22
2022-12-14T12:19:57.802Z,72.93
2022-12-14T12:22:25.555Z,73.05
2022-12-14T12:25:16.661Z,72.93
2022-12-14T12:27:40.663Z,72.22
2022-12-14T12:30:08.526Z,72.18
2022-12-14T12:32:36.748Z,72.42
2022-12-14T12:35:18.638Z,72.29
2022-12-14T12:37:53.130Z,72.13
2022-12-14T12:40:21.240Z,71.74
2022-12-14T12:42:47.662Z,71.73
2022-12-14T12:45:20.209Z,71.67
2022-12-14T12:47:50.816Z,71.52
2022-12-14T12:50:18.557Z,70.12
2022-12-14T12:53:04.482Z,70.37
2022-12-14T12:55:31.922Z,68.59
2022-12-14T12:57:58.724Z,69.10
2022-12-14T13:00:26.562Z,68.61
2022-12-14T13:02:54.822Z,68.81
2022-12-14T13:05:45.856Z,67.06
2022-12-14T13:08:12.368Z,67.57
2022-12-14T13:10:50.615Z,68.04
2022-12-14T13:13:31.196Z,68.23
2022-12-14T13:15:59.346Z,67.11
2022-12-14T13:21:52.987Z,68.67
2022-12-14T13:24:21.908Z,68.60
2022-12-14T13:26:59.026Z,68.72
2022-12-14T13:29:40.417Z,68.45
2022-12-14T13:32:29.880Z,67.86
2022-12-14T13:35:00.250Z,68.17
2022-12-14T13:37:50.137Z,67.58
2022-12-14T13:40:34.981Z,66.19
2022-12-14T13:43:05.988Z,66.89
2022-12-14T13:45:35.008Z,67.33
2022-12-14T13:48:01.520Z,67.12
2022-12-14T13:50:36.573Z,67.21
2022-12-14T13:53:04.789Z,66.26
2022-12-14T13:55:32.549Z,67.32
2022-12-14T13:58:06.257Z,67.21
2022-12-14T14:00:44.946Z,67.26
2022-12-14T14:03:30.199Z,67.64
2022-12-14T14:05:57.230Z,67.57
2022-12-14T14:08:31.287Z,68.18
2022-12-14T14:11:38.707Z,68.29
2022-12-14T14:14:12.175Z,68.46
2022-12-14T14:16:45.193Z,68.18
2022-12-14T14:19:11.680Z,68.08
2022-12-14T14:22:05.994Z,67.13
2022-12-14T14:24:28.875Z,67.52
2022-12-14T14:26:58.987Z,67.71
2022-12-14T14:29:29.116Z,67.83
2022-12-14T14:32:14.365Z,68.12
2022-12-14T14:34:43.922Z,67.68
2022-12-14T14:37:22.852Z,67.67
2022-12-14T14:40:23.857Z,67.22
2022-12-14T14:43:05.374Z,66.63
2022-12-14T14:45:35.005Z,66.87
2022-12-14T14:48:02.524Z,67.37
2022-12-14T14:50:34.466Z,67.34
2022-12-14T14:53:00.956Z,67.78
2022-12-14T14:55:54.966Z,67.64
2022-12-14T14:58:24.701Z,67.81
2022-12-14T15:01:07.415Z,67.45
2022-12-14T15:03:45.191Z,67.03
2022-12-14T15:06:16.192Z,67.45
2022-12-14T15:09:09.060Z,67.93
2022-12-14T15:11:48.759Z,67.56
2022-12-14T15:14:35.766Z,67.89
2022-12-14T15:17:15.168Z,68.42
2022-12-14T15:19:51.528Z,68.25
2022-12-14T15:22:19.774Z,69.97
2022-12-14T15:24:47.399Z,70.00
2022-12-14T15:27:16.866Z,69.79
2022-12-14T15:29:43.906Z,69.29
2022-12-14T15:32:12.244Z,69.28
2022-12-14T15:34:39.960Z,69.23
2022-12-14T15:37:06.501Z,69.32
2022-12-14T15:39:43.583Z,69.89
2022-12-14T15:42:11.512Z,69.84
2022-12-14T15:44:38.130Z,70.05
2022-12-14T15:47:04.855Z,70.95
2022-12-14T15:49:31.395Z,70.94
2022-12-14T15:51:57.833Z,71.11
2022-12-14T15:54:25.030Z,70.67
2022-12-14T15:56:53.060Z,71.17
2022-12-14T15:59:23.623Z,71.25
2022-12-14T16:01:56.031Z,71.53
2022-12-14T16:04:25.799Z,71.67
2022-12-14T16:06:53.559Z,72.52
2022-12-14T16:09:26.657Z,72.60
2022-12-14T16:11:54.783Z,72.96
2022-12-14T16:14:21.156Z,73.12
2022-12-14T16:16:47.777Z,73.46
2022-12-14T16:19:27.089Z,73.21
2022-12-14T16:22:11.274Z,73.59
2022-12-14T16:24:37.895Z,73.72
2022-12-14T16:27:04.649Z,73.75
2022-12-14T16:29:31.751Z,73.61
2022-12-14T16:32:05.483Z,74.38
2022-12-14T16:34:33.352Z,74.78
2022-12-14T16:37:32.030Z,74.99
2022-12-14T16:39:47.427Z,74.60
2022-12-14T16:42:18.148Z,75.19
2022-12-14T16:44:44.640Z,75.34
2022-12-14T16:47:14.689Z,76.03
2022-12-14T16:49:41.808Z,76.34
2022-12-14T16:52:15.571Z,76.62
2022-12-14T16:54:42.113Z,76.45
2022-12-14T16:57:18.487Z,76.41
2022-12-14T16:59:45.633Z,76.62
2022-12-14T17:02:23.851Z,77.00
2022-12-14T17:04:50.400Z,76.73
2022-12-14T17:07:16.822Z,76.75
2022-12-14T17:09:43.254Z,77.56
2022-12-14T17:12:11.434Z,77.07
2022-12-14T17:14:37.875Z,77.49
2022-12-14T17:17:04.386Z,77.08
2022-12-14T17:19:34.294Z,77.09
2022-12-14T17:22:00.767Z,77.55
2022-12-14T17:24:27.707Z,77.73
2022-12-14T17:26:54.333Z,77.99
2022-12-14T17:29:21.988Z,77.64
2022-12-14T17:31:49.994Z,77.53
2022-12-14T17:34:17.486Z,77.43
2022-12-14T17:36:44.174Z,77.79
2022-12-14T17:39:10.753Z,78.09
2022-12-14T17:41:37.878Z,78.02
2022-12-14T17:44:04.417Z,78.40
2022-12-14T17:46:31.121Z,78.27
2022-12-14T17:49:01.517Z,78.31
2022-12-14T17:51:31.678Z,78.75
2022-12-14T17:53:58.245Z,78.56
2022-12-14T17:56:24.734Z,78.26
2022-12-14T17:58:51.318Z,78.51
2022-12-14T18:01:18.684Z,79.07
2022-12-14T18:03:46.015Z,78.96
2022-12-14T18:06:13.319Z,79.45
2022-12-14T18:08:39.789Z,79.46
2022-12-14T18:11:10.363Z,79.60
2022-12-14T18:13:40.395Z,79.48
2022-12-14T18:16:06.986Z,79.69
2022-12-14T18:18:33.444Z,79.64
2022-12-14T18:21:01.447Z,79.63
2022-12-14T18:23:28.617Z,79.88
2022-12-14T18:25:56.125Z,79.71
2022-12-14T18:28:22.682Z,79.76
2022-12-14T18:31:07.384Z,79.78
2022-12-14T18:33:35.314Z,79.65
2022-12-14T18:36:01.860Z,79.97
2022-12-14T18:38:28.298Z,80.43
2022-12-14T18:40:55.039Z,80.55
2022-12-14T18:43:25.440Z,80.63
2022-12-14T18:45:52.561Z,80.32
2022-12-14T18:48:19.317Z,80.84
2022-12-14T18:50:46.237Z,80.16
2022-12-14T18:53:17.303Z,80.59
2022-12-14T18:55:44.005Z,80.21
2022-12-14T18:58:14.936Z,80.62
2022-12-14T19:00:41.363Z,80.15
2022-12-14T19:03:08.269Z,80.19
2022-12-14T19:05:34.931Z,80.50
2022-12-14T19:08:01.449Z,79.99
2022-12-14T19:10:28.948Z,80.34
2022-12-14T19:12:55.655Z,80.07
2022-12-14T19:15:22.965Z,80.15
2022-12-14T19:17:49.582Z,80.49
2022-12-14T19:20:16.246Z,80.10
2022-12-14T19:22:42.805Z,79.84
2022-12-14T19:25:09.290Z,79.84
2022-12-14T19:28:11.590Z,80.46
2022-12-14T19:30:23.290Z,80.24
2022-12-14T19:32:50.537Z,80.20
2022-12-14T19:35:17.246Z,79.68
2022-12-14T19:37:43.706Z,79.71
2022-12-14T19:40:13.714Z,79.88
2022-12-14T19:42:40.687Z,79.51
2022-12-14T19:45:07.997Z,79.49
2022-12-14T19:47:34.750Z,79.71
2022-12-14T19:50:01.940Z,79.64
2022-12-14T19:52:28.534Z,79.42
2022-12-14T19:54:54.926Z,79.79
2022-12-14T19:57:21.692Z,79.25
2022-12-14T19:59:48.125Z,78.99
2022-12-14T20:02:14.865Z,78.93
2022-12-14T20:04:41.558Z,78.73
2022-12-14T20:07:08.127Z,78.40
2022-12-14T20:09:34.828Z,80.15
2022-12-14T20:12:01.538Z,79.69
2022-12-14T20:14:28.067Z,80.68
2022-12-14T20:16:54.656Z,81.02
2022-12-14T20:19:21.726Z,82.23
2022-12-14T20:21:48.323Z,82.16
2022-12-14T20:24:14.859Z,82.06
2022-12-14T20:26:41.309Z,82.18
2022-12-14T20:29:08.015Z,82.32
2022-12-14T20:31:34.869Z,83.15
2022-12-14T20:34:01.825Z,84.48
2022-12-14T20:36:28.953Z,84.81
2022-12-14T20:38:56.191Z,84.68
2022-12-14T20:41:22.867Z,85.55
2022-12-14T20:43:49.353Z,85.44
2022-12-14T20:46:32.119Z,85.56
2022-12-14T20:49:01.493Z,85.54
2022-12-14T20:51:28.564Z,85.81
2022-12-14T20:53:55.176Z,85.83
2022-12-14T20:56:21.647Z,85.28
2022-12-14T20:58:48.386Z,85.50
2022-12-14T21:01:15.051Z,85.17
2022-12-14T21:03:41.868Z,85.55
2022-12-14T21:06:08.702Z,85.78
2022-12-14T21:08:53.903Z,85.85
2022-12-14T21:11:39.008Z,86.15
2022-12-14T21:14:05.600Z,85.51
2022-12-14T21:16:32.189Z,85.53
2022-12-14T21:18:58.751Z,85.19
2022-12-14T21:21:25.465Z,85.00
2022-12-14T21:23:51.886Z,84.97
2022-12-14T21:26:18.484Z,84.60
2022-12-14T21:28:44.921Z,84.89
2022-12-14T21:31:16.062Z,84.27
2022-12-14T21:33:49.453Z,84.24
2022-12-14T21:36:16.330Z,83.92
2022-12-14T21:38:42.915Z,84.14
2022-12-14T21:41:29.177Z,84.29
2022-12-14T21:43:55.596Z,84.48
2022-12-14T21:46:24.520Z,84.84
2022-12-14T21:48:54.342Z,84.79
2022-12-14T21:51:20.975Z,84.79
2022-12-14T21:54:00.820Z,84.94
2022-12-14T21:56:46.504Z,84.20
2022-12-14T21:59:13.093Z,84.66
2022-12-14T22:01:39.708Z,84.11
2022-12-14T22:04:06.319Z,84.18
2022-12-14T22:06:33.050Z,84.46
2022-12-14T22:09:02.582Z,84.49
2022-12-14T22:11:29.245Z,84.78
2022-12-14T22:13:55.712Z,84.60
2022-12-14T22:16:22.263Z,85.35
2022-12-14T22:18:53.889Z,85.18
2022-12-14T22:21:20.350Z,85.05
2022-12-14T22:23:46.891Z,85.44
2022-12-14T22:26:13.317Z,84.59
2022-12-14T22:28:39.893Z,84.35
2022-12-14T22:31:06.340Z,84.78
2022-12-14T22:33:33.973Z,84.74
2022-12-14T22:36:00.494Z,84.50
2022-12-14T22:38:26.956Z,83.86
2022-12-14T22:40:53.382Z,82.92
2022-12-14T22:43:24.331Z,83.44
2022-12-14T22:45:54.000Z,83.67
2022-12-14T22:48:20.434Z,82.77
2022-12-14T22:50:47.002Z,83.42
2022-12-14T22:53:14.045Z,83.45
2022-12-14T22:55:40.926Z,83.04
2022-12-14T22:58:07.939Z,82.43
2022-12-14T23:00:49.825Z,82.45
2022-12-14T23:03:16.469Z,82.67
2022-12-14T23:05:43.155Z,82.50
2022-12-14T23:08:09.599Z,82.45
2022-12-14T23:10:54.688Z,82.25
2022-12-14T23:13:39.931Z,82.18
2022-12-14T23:16:25.339Z,82.52
2022-12-14T23:19:10.696Z,82.13
2022-12-14T23:21:56.229Z,82.12
2022-12-14T23:24:41.309Z,82.60
2022-12-14T23:27:26.526Z,81.85
2022-12-14T23:30:11.802Z,82.14
2022-12-14T23:32:57.009Z,82.33
2022-12-14T23:35:42.190Z,81.90
2022-12-14T23:38:27.560Z,82.09
2022-12-14T23:41:19.000Z,81.71
2022-12-14T23:44:04.027Z,81.90
2022-12-14T23:46:49.358Z,81.85
2022-12-14T23:49:34.392Z,81.90
2022-12-14T23:52:19.517Z,82.33
2022-12-14T23:55:04.877Z,82.42
2022-12-14T23:57:50.049Z,82.30
